UIIIUNKL

Guest
Details From UIII - Irkutsk
To UNKL - Yemelyanovo
Flight Number -
Tags Generated
Created
Modified
Stats Distance 479 nm / 886 km
Max Altitude 0 ft / 0 m
Waypoints 3
Social Downloads 0
Likes 0
Share VATSIM

Download

Looking for another format? Having issues loading an existing format? Contact us
Advertisement - Login to hide

Notes

Generated

Route

UIII BK UNKL

ID Type Via Altitude Latitude Longitude Leg Dist Tot Dist Heading (true) Name
O UIII APT - 0 ft / 0 m 52.27217˚ 104.37436˚ - 0 nm - -
BK NDB - 0 ft / 0 m 56.15000˚ 92.58500˚ 474 nm 474 nm 304° / 294° KRASNOYARSK NDB
O UNKL APT - 0 ft / 0 m 56.17948˚ 92.46587˚ 4 nm 478 nm 294° / 294° -

Altitude Profile

Advertisement - Login to hide

Weather


0- 5 10 15 20 25 30 35+ Temperature / ° C

Clouds and Precipitation
Forecast for 2017-12-13 00:00 UTC. Updated an hour ago

Ground ~20,000 ft ~40,000 ft Winds

UIII

Details ICAO UIII (IKT)
Name Irkutsk
Region Russia
Timezone Asia/Irkutsk (UTC+8.0)
Stats Elevation 1,675 ft / 511 m (AMSL)
Location 52.266437° 104.395694°
Runways 1
Magnetic Variation 3.761° W

METAR

UIII 122000Z 30002MPS 3200 -SHSN BKN030CB M17/M19 Q1025 R30/490340 NOSIG RMK QFE724/0965

Decode

TAF

TAF UIII 121700Z 1218/1318 30005MPS 2000 SHSN BKN011CB TEMPO 1218/1318 0500 +SHSN VV005

Decode

Departure Runways

ID Width Length Bearing (true) Bearing (mag) Surface Threshold Offset Overrun Length
12 148 ft / 45 m 10,408 ft / 3,172 m 113.68° 117.44° Concrete 1,312 ft / 400 m 266 ft / 81 m
30 148 ft / 45 m 10,408 ft / 3,172 m 293.72° 297.48° Concrete 1,178 ft / 359 m 1,316 ft / 401 m

UNKL

Details ICAO UNKL (KJA)
Name YEMELYANOVO
Region Russia
Timezone Asia/Krasnoyarsk (UTC+7.0)
Stats Elevation 942 ft / 287 m (AMSL)
Location 56.172946° 92.493276°
Runways 1
Magnetic Variation 4.123° E

METAR

UNKL 122000Z 27004MPS 5000 -SN NSC M09/M12 Q1028 R29/410149 NOSIG RMK QFE745

Decode

TAF

TAF UNKL 121656Z 1218/1318 25003G08MPS 9999 -SN SCT015 TEMPO 1218/1301 2100 -SN SCT007 BECMG 1301/1302 3500 -SHSN BKN015CB TEMPO 1302/1318 1000 SHSN VV005

Decode

Destination Runways

ID Width Length Bearing (true) Bearing (mag) Surface Threshold Offset Overrun Length
11 197 ft / 60 m 12,113 ft / 3,692 m 113.16° 109.04° Asphalt 0 ft / 0 m 235 ft / 72 m
29 197 ft / 60 m 12,113 ft / 3,692 m 293.21° 289.09° Asphalt 0 ft / 0 m 215 ft / 66 m

Popular Alternatives